sensor_id;sensor_type;location;lat;lon;timestamp;pressure;altitude;pressure_sealevel;temperature;humidity
34034;BME280;63481;52.588;22.472;2023-04-26T00:00:23;99278.57;;;5.31;99.57
34034;BME280;63481;52.588;22.472;2023-04-26T00:01:15;99278.23;;;5.27;99.40
34034;BME280;63481;52.588;22.472;2023-04-26T00:01:48;99280.17;;;5.29;99.22
34034;BME280;63481;52.588;22.472;2023-04-26T00:02:20;99275.40;;;5.25;99.23
34034;BME280;63481;52.588;22.472;2023-04-26T00:02:52;99275.58;;;5.19;99.05
34034;BME280;63481;52.588;22.472;2023-04-26T00:03:25;99278.98;;;5.20;98.83
34034;BME280;63481;52.588;22.472;2023-04-26T00:03:58;99282.27;;;5.18;99.25
34034;BME280;63481;52.588;22.472;2023-04-26T00:04:30;99280.00;;;5.18;99.26
34034;BME280;63481;52.588;22.472;2023-04-26T00:05:02;99275.59;;;5.22;99.52
34034;BME280;63481;52.588;22.472;2023-04-26T00:05:36;99280.87;;;5.22;99.05
34034;BME280;63481;52.588;22.472;2023-04-26T00:06:08;99278.80;;;5.22;99.09
34034;BME280;63481;52.588;22.472;2023-04-26T00:06:40;99280.46;;;5.22;99.27
34034;BME280;63481;52.588;22.472;2023-04-26T00:07:12;99280.09;;;5.22;99.29
34034;BME280;63481;52.588;22.472;2023-04-26T00:07:46;99281.23;;;5.20;99.43
34034;BME280;63481;52.588;22.472;2023-04-26T00:08:21;99281.29;;;5.17;99.41
34034;BME280;63481;52.588;22.472;2023-04-26T00:08:53;99281.36;;;5.14;99.39
34034;BME280;63481;52.588;22.472;2023-04-26T00:09:25;99286.15;;;5.12;99.35
34034;BME280;63481;52.588;22.472;2023-04-26T00:09:57;99283.89;;;5.09;99.46
34034;BME280;63481;52.588;22.472;2023-04-26T00:10:29;99287.84;;;5.09;99.18
34034;BME280;63481;52.588;22.472;2023-04-26T00:11:01;99291.80;;;5.08;99.13
34034;BME280;63481;52.588;22.472;2023-04-26T00:11:33;99295.26;;;5.05;99.15
34034;BME280;63481;52.588;22.472;2023-04-26T00:12:05;99297.06;;;5.03;98.97
34034;BME280;63481;52.588;22.472;2023-04-26T00:12:37;99300.99;;;5.01;98.69
34034;BME280;63481;52.588;22.472;2023-04-26T00:13:11;99298.94;;;5.02;98.83
34034;BME280;63481;52.588;22.472;2023-04-26T00:13:43;99302.67;;;5.07;99.08
34034;BME280;63481;52.588;22.472;2023-04-26T00:14:15;99300.50;;;5.06;98.70
34034;BME280;63481;52.588;22.472;2023-04-26T00:14:48;99299.52;;;5.00;98.31
34034;BME280;63481;52.588;22.472;2023-04-26T00:15:20;99301.07;;;4.94;97.93
34034;BME280;63481;52.588;22.472;2023-04-26T00:15:52;99306.35;;;4.81;97.75
34034;BME280;63481;52.588;22.472;2023-04-26T00:16:24;99302.78;;;4.82;97.98
34034;BME280;63481;52.588;22.472;2023-04-26T00:16:56;99305.02;;;4.76;98.19
34034;BME280;63481;52.588;22.472;2023-04-26T00:17:28;99302.66;;;4.78;98.33
34034;BME280;63481;52.588;22.472;2023-04-26T00:18:00;99306.33;;;4.80;98.51
34034;BME280;63481;52.588;22.472;2023-04-26T00:18:32;99304.77;;;4.81;98.70
34034;BME280;63481;52.588;22.472;2023-04-26T00:19:04;99308.85;;;4.79;98.90
34034;BME280;63481;52.588;22.472;2023-04-26T00:19:36;99307.84;;;4.80;98.94
34034;BME280;63481;52.588;22.472;2023-04-26T00:20:10;99306.54;;;4.80;98.82
34034;BME280;63481;52.588;22.472;2023-04-26T00:20:43;99306.61;;;4.77;99.01
34034;BME280;63481;52.588;22.472;2023-04-26T00:21:15;99307.83;;;4.72;98.67
34034;BME280;63481;52.588;22.472;2023-04-26T00:21:47;99307.23;;;4.73;98.62
34034;BME280;63481;52.588;22.472;2023-04-26T00:22:19;99309.98;;;4.72;98.35
34034;BME280;63481;52.588;22.472;2023-04-26T00:22:51;99310.36;;;4.73;98.49
34034;BME280;63481;52.588;22.472;2023-04-26T00:23:23;99308.71;;;4.72;98.60
34034;BME280;63481;52.588;22.472;2023-04-26T00:23:55;99309.08;;;4.65;98.46
34034;BME280;63481;52.588;22.472;2023-04-26T00:24:28;99312.67;;;4.59;98.32
34034;BME280;63481;52.588;22.472;2023-04-26T00:25:00;99309.54;;;4.57;98.19
34034;BME280;63481;52.588;22.472;2023-04-26T00:25:32;99310.73;;;4.55;98.29
34034;BME280;63481;52.588;22.472;2023-04-26T00:26:04;99310.27;;;4.56;98.17
34034;BME280;63481;52.588;22.472;2023-04-26T00:26:36;99310.14;;;4.57;98.17
34034;BME280;63481;52.588;22.472;2023-04-26T00:27:08;99313.78;;;4.56;98.39
34034;BME280;63481;52.588;22.472;2023-04-26T00:27:41;99313.89;;;4.59;98.46
34034;BME280;63481;52.588;22.472;2023-04-26T00:28:13;99313.32;;;4.59;98.20
34034;BME280;63481;52.588;22.472;2023-04-26T00:28:45;99315.64;;;4.58;98.23
34034;BME280;63481;52.588;22.472;2023-04-26T00:29:17;99315.84;;;4.49;98.09
34034;BME280;63481;52.588;22.472;2023-04-26T00:29:49;99312.23;;;4.46;98.17
34034;BME280;63481;52.588;22.472;2023-04-26T00:30:21;99313.90;;;4.41;98.12
34034;BME280;63481;52.588;22.472;2023-04-26T00:30:53;99313.71;;;4.38;98.24
34034;BME280;63481;52.588;22.472;2023-04-26T00:31:28;99312.58;;;4.38;98.12
34034;BME280;63481;52.588;22.472;2023-04-26T00:32:00;99315.59;;;4.39;98.42
34034;BME280;63481;52.588;22.472;2023-04-26T00:32:32;99314.89;;;4.42;98.85
34034;BME280;63481;52.588;22.472;2023-04-26T00:33:06;99319.20;;;4.44;98.87
34034;BME280;63481;52.588;22.472;2023-04-26T00:33:38;99313.02;;;4.42;98.69
34034;BME280;63481;52.588;22.472;2023-04-26T00:34:10;99316.74;;;4.41;98.66
34034;BME280;63481;52.588;22.472;2023-04-26T00:34:42;99315.16;;;4.38;98.67
34034;BME280;63481;52.588;22.472;2023-04-26T00:35:14;99320.16;;;4.36;98.37
34034;BME280;63481;52.588;22.472;2023-04-26T00:35:46;99318.58;;;4.29;98.40
34034;BME280;63481;52.588;22.472;2023-04-26T00:36:18;99320.61;;;4.25;98.14
34034;BME280;63481;52.588;22.472;2023-04-26T00:36:50;99324.14;;;4.28;98.31
34034;BME280;63481;52.588;22.472;2023-04-26T00:37:22;99320.08;;;4.24;98.21
34034;BME280;63481;52.588;22.472;2023-04-26T00:37:54;99320.67;;;4.28;98.37
34034;BME280;63481;52.588;22.472;2023-04-26T00:38:26;99321.86;;;4.27;98.03
34034;BME280;63481;52.588;22.472;2023-04-26T00:38:58;99323.35;;;4.31;98.02
34034;BME280;63481;52.588;22.472;2023-04-26T00:39:30;99320.67;;;4.31;98.37
34034;BME280;63481;52.588;22.472;2023-04-26T00:40:03;99316.91;;;4.25;97.67
34034;BME280;63481;52.588;22.472;2023-04-26T00:40:36;99324.12;;;4.22;98.05
34034;BME280;63481;52.588;22.472;2023-04-26T00:41:08;99319.41;;;4.24;97.90
34034;BME280;63481;52.588;22.472;2023-04-26T00:41:40;99320.38;;;4.17;97.98
34034;BME280;63481;52.588;22.472;2023-04-26T00:42:13;99323.55;;;4.14;97.95
34034;BME280;63481;52.588;22.472;2023-04-26T00:42:45;99322.63;;;4.16;98.08
34034;BME280;63481;52.588;22.472;2023-04-26T00:43:17;99319.63;;;4.16;98.03
34034;BME280;63481;52.588;22.472;2023-04-26T00:43:49;99323.52;;;4.14;98.04
34034;BME280;63481;52.588;22.472;2023-04-26T00:44:21;99322.65;;;4.17;97.77
34034;BME280;63481;52.588;22.472;2023-04-26T00:44:53;99320.91;;;4.13;97.79
34034;BME280;63481;52.588;22.472;2023-04-26T00:45:28;99325.05;;;4.11;97.70
34034;BME280;63481;52.588;22.472;2023-04-26T00:46:00;99329.20;;;4.13;97.95
34034;BME280;63481;52.588;22.472;2023-04-26T00:46:32;99321.48;;;4.11;98.24
34034;BME280;63481;52.588;22.472;2023-04-26T00:47:04;99326.52;;;4.11;98.33
34034;BME280;63481;52.588;22.472;2023-04-26T00:47:37;99329.56;;;4.11;98.16
34034;BME280;63481;52.588;22.472;2023-04-26T00:48:09;99327.95;;;4.08;98.11
34034;BME280;63481;52.588;22.472;2023-04-26T00:48:41;99328.70;;;4.05;98.05
34034;BME280;63481;52.588;22.472;2023-04-26T00:49:16;99330.56;;;4.06;98.31
34034;BME280;63481;52.588;22.472;2023-04-26T00:49:49;99328.08;;;4.05;98.24
34034;BME280;63481;52.588;22.472;2023-04-26T00:50:21;99328.73;;;4.05;97.77
34034;BME280;63481;52.588;22.472;2023-04-26T00:50:54;99330.89;;;4.05;97.47
34034;BME280;63481;52.588;22.472;2023-04-26T00:51:27;99330.79;;;4.07;97.68
34034;BME280;63481;52.588;22.472;2023-04-26T00:51:59;99331.09;;;4.06;97.62
34034;BME280;63481;52.588;22.472;2023-04-26T00:52:31;99331.19;;;4.06;97.60
34034;BME280;63481;52.588;22.472;2023-04-26T00:53:03;99333.04;;;4.06;97.66
34034;BME280;63481;52.588;22.472;2023-04-26T00:53:36;99335.38;;;4.07;97.81
34034;BME280;63481;52.588;22.472;2023-04-26T00:54:09;99333.42;;;4.06;97.96
34034;BME280;63481;52.588;22.472;2023-04-26T00:54:41;99333.09;;;4.07;97.85
34034;BME280;63481;52.588;22.472;2023-04-26T00:55:14;99334.23;;;4.08;98.14
34034;BME280;63481;52.588;22.472;2023-04-26T00:55:47;99336.96;;;4.01;98.15
34034;BME280;63481;52.588;22.472;2023-04-26T00:56:20;99331.20;;;3.98;98.30
34034;BME280;63481;52.588;22.472;2023-04-26T00:56:53;99338.02;;;3.94;98.15
34034;BME280;63481;52.588;22.472;2023-04-26T00:57:25;99338.41;;;4.02;98.38
34034;BME280;63481;52.588;22.472;2023-04-26T00:57:58;99334.05;;;4.02;98.11
34034;BME280;63481;52.588;22.472;2023-04-26T00:58:30;99336.58;;;4.03;98.28
34034;BME280;63481;52.588;22.472;2023-04-26T00:59:04;99337.34;;;3.95;98.12
34034;BME280;63481;52.588;22.472;2023-04-26T00:59:36;99337.34;;;3.95;98.16
34034;BME280;63481;52.588;22.472;2023-04-26T01:00:08;99335.77;;;3.95;98.23
34034;BME280;63481;52.588;22.472;2023-04-26T01:00:40;99334.70;;;3.97;98.21
34034;BME280;63481;52.588;22.472;2023-04-26T01:01:12;99338.23;;;4.02;98.22
34034;BME280;63481;52.588;22.472;2023-04-26T01:01:44;99338.32;;;4.03;98.28
34034;BME280;63481;52.588;22.472;2023-04-26T01:02:17;99336.61;;;4.01;98.00
34034;BME280;63481;52.588;22.472;2023-04-26T01:02:49;99336.99;;;3.96;98.19
34034;BME280;63481;52.588;22.472;2023-04-26T01:03:21;99335.21;;;3.97;98.13
34034;BME280;63481;52.588;22.472;2023-04-26T01:03:54;99338.92;;;3.99;97.94
34034;BME280;63481;52.588;22.472;2023-04-26T01:04:26;99339.23;;;4.07;98.37
34034;BME280;63481;52.588;22.472;2023-04-26T01:04:58;99340.83;;;4.04;98.57
34034;BME280;63481;52.588;22.472;2023-04-26T01:05:30;99335.80;;;4.05;98.78
34034;BME280;63481;52.588;22.472;2023-04-26T01:06:02;99336.17;;;4.06;98.67
34034;BME280;63481;52.588;22.472;2023-04-26T01:06:35;99340.96;;;4.02;98.29
34034;BME280;63481;52.588;22.472;2023-04-26T01:07:09;99337.13;;;4.04;98.41
34034;BME280;63481;52.588;22.472;2023-04-26T01:07:43;99336.17;;;4.03;98.50
34034;BME280;63481;52.588;22.472;2023-04-26T01:08:15;99335.55;;;4.04;98.42
34034;BME280;63481;52.588;22.472;2023-04-26T01:08:52;99333.14;;;4.08;98.55
34034;BME280;63481;52.588;22.472;2023-04-26T01:09:24;99335.09;;;4.08;98.48
34034;BME280;63481;52.588;22.472;2023-04-26T01:09:57;99335.25;;;4.08;98.36
34034;BME280;63481;52.588;22.472;2023-04-26T01:10:31;99333.19;;;4.07;98.51
34034;BME280;63481;52.588;22.472;2023-04-26T01:11:03;99335.36;;;4.11;98.63
34034;BME280;63481;52.588;22.472;2023-04-26T01:11:37;99337.80;;;4.10;98.63
34034;BME280;63481;52.588;22.472;2023-04-26T01:12:10;99334.52;;;4.11;98.79
34034;BME280;63481;52.588;22.472;2023-04-26T01:12:43;99331.42;;;4.13;98.64
34034;BME280;63481;52.588;22.472;2023-04-26T01:13:16;99337.41;;;4.12;98.59
34034;BME280;63481;52.588;22.472;2023-04-26T01:13:49;99339.64;;;4.08;98.65
34034;BME280;63481;52.588;22.472;2023-04-26T01:14:22;99336.16;;;4.04;98.61
34034;BME280;63481;52.588;22.472;2023-04-26T01:14:56;99338.27;;;4.06;98.99
34034;BME280;63481;52.588;22.472;2023-04-26T01:15:28;99336.65;;;4.05;98.84
34034;BME280;63481;52.588;22.472;2023-04-26T01:16:01;99336.62;;;4.09;99.10
34034;BME280;63481;52.588;22.472;2023-04-26T01:16:34;99339.02;;;4.13;99.06
34034;BME280;63481;52.588;22.472;2023-04-26T01:17:06;99338.88;;;4.15;99.01
34034;BME280;63481;52.588;22.472;2023-04-26T01:17:38;99338.85;;;4.18;99.03
34034;BME280;63481;52.588;22.472;2023-04-26T01:18:10;99337.27;;;4.23;99.24
34034;BME280;63481;52.588;22.472;2023-04-26T01:18:42;99339.73;;;4.23;99.05
34034;BME280;63481;52.588;22.472;2023-04-26T01:19:15;99340.96;;;4.21;98.87
34034;BME280;63481;52.588;22.472;2023-04-26T01:19:47;99337.91;;;4.18;98.88
34034;BME280;63481;52.588;22.472;2023-04-26T01:20:20;99338.52;;;4.14;98.91
34034;BME280;63481;52.588;22.472;2023-04-26T01:20:52;99337.98;;;4.20;98.89
34034;BME280;63481;52.588;22.472;2023-04-26T01:21:24;99338.15;;;4.24;98.91
34034;BME280;63481;52.588;22.472;2023-04-26T01:21:56;99337.40;;;4.19;99.12
34034;BME280;63481;52.588;22.472;2023-04-26T01:22:31;99336.39;;;4.18;98.96
34034;BME280;63481;52.588;22.472;2023-04-26T01:23:03;99336.81;;;4.16;99.07
34034;BME280;63481;52.588;22.472;2023-04-26T01:23:37;99335.55;;;4.17;99.03
34034;BME280;63481;52.588;22.472;2023-04-26T01:24:12;99331.05;;;4.17;99.14
34034;BME280;63481;52.588;22.472;2023-04-26T01:24:47;99335.58;;;4.15;99.18
34034;BME280;63481;52.588;22.472;2023-04-26T01:25:21;99334.89;;;4.19;99.41
34034;BME280;63481;52.588;22.472;2023-04-26T01:25:53;99336.67;;;4.16;99.26
34034;BME280;63481;52.588;22.472;2023-04-26T01:26:27;99331.64;;;4.08;99.13
34034;BME280;63481;52.588;22.472;2023-04-26T01:26:59;99334.70;;;4.04;98.65
34034;BME280;63481;52.588;22.472;2023-04-26T01:27:31;99331.83;;;4.03;98.80
34034;BME280;63481;52.588;22.472;2023-04-26T01:28:03;99332.33;;;4.07;98.95
34034;BME280;63481;52.588;22.472;2023-04-26T01:28:35;99333.28;;;4.12;99.04
34034;BME280;63481;52.588;22.472;2023-04-26T01:29:14;99331.45;;;4.17;99.17
34034;BME280;63481;52.588;22.472;2023-04-26T01:29:46;99334.02;;;4.14;98.73
34034;BME280;63481;52.588;22.472;2023-04-26T01:30:18;99333.98;;;4.10;98.56
34034;BME280;63481;52.588;22.472;2023-04-26T01:30:50;99331.95;;;4.05;98.41
34034;BME280;63481;52.588;22.472;2023-04-26T01:31:22;99333.93;;;4.03;98.42
34034;BME280;63481;52.588;22.472;2023-04-26T01:31:54;99334.00;;;4.04;98.54
34034;BME280;63481;52.588;22.472;2023-04-26T01:32:26;99328.34;;;4.02;98.52
34034;BME280;63481;52.588;22.472;2023-04-26T01:32:58;99329.35;;;4.03;98.57
34034;BME280;63481;52.588;22.472;2023-04-26T01:33:30;99329.36;;;4.03;98.71
34034;BME280;63481;52.588;22.472;2023-04-26T01:34:02;99330.64;;;4.04;98.92
34034;BME280;63481;52.588;22.472;2023-04-26T01:34:34;99329.66;;;4.00;98.48
34034;BME280;63481;52.588;22.472;2023-04-26T01:35:07;99329.55;;;4.03;98.87
34034;BME280;63481;52.588;22.472;2023-04-26T01:35:39;99327.69;;;4.06;98.56
34034;BME280;63481;52.588;22.472;2023-04-26T01:36:11;99330.98;;;4.07;98.89
34034;BME280;63481;52.588;22.472;2023-04-26T01:36:43;99327.17;;;4.01;98.44
34034;BME280;63481;52.588;22.472;2023-04-26T01:37:15;99325.73;;;3.98;98.71
34034;BME280;63481;52.588;22.472;2023-04-26T01:37:47;99325.42;;;3.96;98.71
34034;BME280;63481;52.588;22.472;2023-04-26T01:38:19;99327.33;;;3.91;98.71
34034;BME280;63481;52.588;22.472;2023-04-26T01:38:51;99325.59;;;3.92;98.57
34034;BME280;63481;52.588;22.472;2023-04-26T01:39:26;99327.50;;;3.96;98.97
34034;BME280;63481;52.588;22.472;2023-04-26T01:39:58;99325.91;;;3.99;98.98
34034;BME280;63481;52.588;22.472;2023-04-26T01:40:30;99323.08;;;3.97;98.70
34034;BME280;63481;52.588;22.472;2023-04-26T01:41:03;99324.04;;;3.92;98.54
34034;BME280;63481;52.588;22.472;2023-04-26T01:41:36;99323.23;;;3.93;98.71
34034;BME280;63481;52.588;22.472;2023-04-26T01:42:08;99328.28;;;3.93;98.86
34034;BME280;63481;52.588;22.472;2023-04-26T01:42:40;99323.05;;;3.94;98.81
34034;BME280;63481;52.588;22.472;2023-04-26T01:43:12;99322.20;;;3.94;98.81
34034;BME280;63481;52.588;22.472;2023-04-26T01:43:46;99322.66;;;3.91;98.37
34034;BME280;63481;52.588;22.472;2023-04-26T01:44:18;99323.27;;;3.91;98.38
34034;BME280;63481;52.588;22.472;2023-04-26T01:44:50;99326.56;;;3.88;98.64
34034;BME280;63481;52.588;22.472;2023-04-26T01:45:22;99324.34;;;3.86;98.56
34034;BME280;63481;52.588;22.472;2023-04-26T01:46:13;99325.71;;;3.90;98.97
34034;BME280;63481;52.588;22.472;2023-04-26T01:46:45;99328.61;;;3.88;99.01
34034;BME280;63481;52.588;22.472;2023-04-26T01:47:17;99327.83;;;3.90;99.17
34034;BME280;63481;52.588;22.472;2023-04-26T01:47:50;99331.25;;;3.90;99.01
34034;BME280;63481;52.588;22.472;2023-04-26T01:48:22;99328.71;;;3.88;98.84
34034;BME280;63481;52.588;22.472;2023-04-26T01:48:54;99329.34;;;3.87;98.57
34034;BME280;63481;52.588;22.472;2023-04-26T01:49:28;99332.09;;;3.85;98.79
34034;BME280;63481;52.588;22.472;2023-04-26T01:50:00;99332.00;;;3.84;98.73
34034;BME280;63481;52.588;22.472;2023-04-26T01:50:32;99332.32;;;3.89;98.98
34034;BME280;63481;52.588;22.472;2023-04-26T01:51:04;99335.93;;;3.91;98.74
34034;BME280;63481;52.588;22.472;2023-04-26T01:51:38;99336.62;;;3.88;98.62
34034;BME280;63481;52.588;22.472;2023-04-26T01:52:12;99340.32;;;3.85;98.57
34034;BME280;63481;52.588;22.472;2023-04-26T01:52:44;99338.55;;;3.83;98.16
34034;BME280;63481;52.588;22.472;2023-04-26T01:53:16;99337.14;;;3.80;98.47
34034;BME280;63481;52.588;22.472;2023-04-26T01:53:48;99342.52;;;3.77;98.51
34034;BME280;63481;52.588;22.472;2023-04-26T01:54:21;99338.98;;;3.78;98.72
34034;BME280;63481;52.588;22.472;2023-04-26T01:54:53;99338.94;;;3.78;98.54
34034;BME280;63481;52.588;22.472;2023-04-26T01:55:25;99337.73;;;3.75;98.45
34034;BME280;63481;52.588;22.472;2023-04-26T01:56:00;99340.10;;;3.74;98.77
34034;BME280;63481;52.588;22.472;2023-04-26T01:56:33;99336.86;;;3.75;98.25
34034;BME280;63481;52.588;22.472;2023-04-26T01:57:06;99340.23;;;3.76;98.77
34034;BME280;63481;52.588;22.472;2023-04-26T01:57:38;99340.08;;;3.76;98.50
34034;BME280;63481;52.588;22.472;2023-04-26T01:58:11;99339.79;;;3.78;98.81
34034;BME280;63481;52.588;22.472;2023-04-26T01:58:43;99341.94;;;3.78;98.77
34034;BME280;63481;52.588;22.472;2023-04-26T01:59:15;99342.73;;;3.79;98.83
34034;BME280;63481;52.588;22.472;2023-04-26T01:59:47;99339.14;;;3.79;98.75
34034;BME280;63481;52.588;22.472;2023-04-26T02:00:19;99343.60;;;3.77;98.71
34034;BME280;63481;52.588;22.472;2023-04-26T02:00:55;99342.49;;;3.75;98.75
34034;BME280;63481;52.588;22.472;2023-04-26T02:01:27;99343.23;;;3.76;99.03
34034;BME280;63481;52.588;22.472;2023-04-26T02:01:59;99344.98;;;3.76;99.10
34034;BME280;63481;52.588;22.472;2023-04-26T02:02:31;99344.21;;;3.78;99.37
34034;BME280;63481;52.588;22.472;2023-04-26T02:03:03;99344.20;;;3.83;99.36
34034;BME280;63481;52.588;22.472;2023-04-26T02:03:35;99342.27;;;3.82;99.10
34034;BME280;63481;52.588;22.472;2023-04-26T02:04:08;99345.06;;;3.78;99.20
34034;BME280;63481;52.588;22.472;2023-04-26T02:04:40;99345.23;;;3.75;98.66
34034;BME280;63481;52.588;22.472;2023-04-26T02:05:12;99341.14;;;3.70;99.05
34034;BME280;63481;52.588;22.472;2023-04-26T02:05:44;99344.96;;;3.70;99.01
34034;BME280;63481;52.588;22.472;2023-04-26T02:06:16;99339.80;;;3.72;99.33
34034;BME280;63481;52.588;22.472;2023-04-26T02:06:48;99340.80;;;3.71;99.26
34034;BME280;63481;52.588;22.472;2023-04-26T02:07:21;99344.23;;;3.66;98.75
34034;BME280;63481;52.588;22.472;2023-04-26T02:07:53;99341.10;;;3.66;99.02
34034;BME280;63481;52.588;22.472;2023-04-26T02:08:25;99343.79;;;3.59;99.18
34034;BME280;63481;52.588;22.472;2023-04-26T02:08:57;99345.23;;;3.59;98.87
34034;BME280;63481;52.588;22.472;2023-04-26T02:09:31;99343.78;;;3.59;99.23
34034;BME280;63481;52.588;22.472;2023-04-26T02:10:04;99345.77;;;3.60;98.73
34034;BME280;63481;52.588;22.472;2023-04-26T02:10:36;99347.41;;;3.61;98.64
34034;BME280;63481;52.588;22.472;2023-04-26T02:11:09;99346.84;;;3.64;98.72
34034;BME280;63481;52.588;22.472;2023-04-26T02:11:41;99348.60;;;3.59;98.80
34034;BME280;63481;52.588;22.472;2023-04-26T02:12:13;99348.59;;;3.59;98.28
34034;BME280;63481;52.588;22.472;2023-04-26T02:12:45;99349.22;;;3.59;98.73
34034;BME280;63481;52.588;22.472;2023-04-26T02:13:17;99346.70;;;3.59;98.45
34034;BME280;63481;52.588;22.472;2023-04-26T02:13:50;99350.24;;;3.57;98.53
34034;BME280;63481;52.588;22.472;2023-04-26T02:14:25;99348.42;;;3.57;98.25
34034;BME280;63481;52.588;22.472;2023-04-26T02:14:58;99345.83;;;3.57;98.56
34034;BME280;63481;52.588;22.472;2023-04-26T02:15:30;99348.39;;;3.52;98.44
34034;BME280;63481;52.588;22.472;2023-04-26T02:16:02;99347.30;;;3.49;98.22
34034;BME280;63481;52.588;22.472;2023-04-26T02:16:34;99348.65;;;3.50;98.15
34034;BME280;63481;52.588;22.472;2023-04-26T02:17:06;99349.18;;;3.47;98.01
34034;BME280;63481;52.588;22.472;2023-04-26T02:17:39;99352.43;;;3.45;98.23
34034;BME280;63481;52.588;22.472;2023-04-26T02:18:11;99349.70;;;3.44;98.28
34034;BME280;63481;52.588;22.472;2023-04-26T02:18:43;99350.47;;;3.43;98.51
34034;BME280;63481;52.588;22.472;2023-04-26T02:19:16;99348.65;;;3.41;98.30
34034;BME280;63481;52.588;22.472;2023-04-26T02:19:48;99351.14;;;3.39;98.36
34034;BME280;63481;52.588;22.472;2023-04-26T02:20:22;99351.20;;;3.40;98.24
34034;BME280;63481;52.588;22.472;2023-04-26T02:20:54;99351.59;;;3.40;98.28
34034;BME280;63481;52.588;22.472;2023-04-26T02:21:26;99346.18;;;3.41;98.43
34034;BME280;63481;52.588;22.472;2023-04-26T02:21:59;99350.85;;;3.36;98.07
34034;BME280;63481;52.588;22.472;2023-04-26T02:22:31;99352.27;;;3.39;98.19
34034;BME280;63481;52.588;22.472;2023-04-26T02:23:03;99349.81;;;3.42;98.61
34034;BME280;63481;52.588;22.472;2023-04-26T02:23:35;99352.98;;;3.43;98.54
34034;BME280;63481;52.588;22.472;2023-04-26T02:24:07;99350.58;;;3.46;98.63
34034;BME280;63481;52.588;22.472;2023-04-26T02:24:39;99354.29;;;3.47;98.52
34034;BME280;63481;52.588;22.472;2023-04-26T02:25:11;99352.48;;;3.46;98.80
34034;BME280;63481;52.588;22.472;2023-04-26T02:25:47;99352.94;;;3.43;98.75
34034;BME280;63481;52.588;22.472;2023-04-26T02:26:19;99352.38;;;3.41;98.67
34034;BME280;63481;52.588;22.472;2023-04-26T02:26:51;99351.45;;;3.38;98.56
34034;BME280;63481;52.588;22.472;2023-04-26T02:27:25;99353.40;;;3.38;98.41
34034;BME280;63481;52.588;22.472;2023-04-26T02:27:57;99351.46;;;3.40;98.63
34034;BME280;63481;52.588;22.472;2023-04-26T02:28:29;99349.38;;;3.41;98.95
34034;BME280;63481;52.588;22.472;2023-04-26T02:29:02;99350.73;;;3.41;98.74
34034;BME280;63481;52.588;22.472;2023-04-26T02:29:34;99350.86;;;3.40;98.26
34034;BME280;63481;52.588;22.472;2023-04-26T02:30:07;99352.22;;;3.39;97.99
34034;BME280;63481;52.588;22.472;2023-04-26T02:30:40;99352.65;;;3.43;98.21
34034;BME280;63481;52.588;22.472;2023-04-26T02:31:13;99350.14;;;3.47;97.99
34034;BME280;63481;52.588;22.472;2023-04-26T02:31:45;99355.14;;;3.47;98.31
34034;BME280;63481;52.588;22.472;2023-04-26T02:32:19;99348.05;;;3.47;97.59
34034;BME280;63481;52.588;22.472;2023-04-26T02:32:52;99351.87;;;3.45;97.52
34034;BME280;63481;52.588;22.472;2023-04-26T02:33:25;99351.91;;;3.42;97.59
34034;BME280;63481;52.588;22.472;2023-04-26T02:33:57;99353.77;;;3.44;97.45
34034;BME280;63481;52.588;22.472;2023-04-26T02:34:29;99356.59;;;3.44;97.42
34034;BME280;63481;52.588;22.472;2023-04-26T02:35:01;99358.08;;;3.43;97.66
34034;BME280;63481;52.588;22.472;2023-04-26T02:35:34;99355.60;;;3.42;97.70
34034;BME280;63481;52.588;22.472;2023-04-26T02:36:07;99357.23;;;3.40;97.77
34034;BME280;63481;52.588;22.472;2023-04-26T02:36:40;99357.35;;;3.40;97.79
34034;BME280;63481;52.588;22.472;2023-04-26T02:37:12;99354.42;;;3.43;97.78
34034;BME280;63481;52.588;22.472;2023-04-26T02:37:44;99354.41;;;3.41;97.98
34034;BME280;63481;52.588;22.472;2023-04-26T02:38:19;99358.34;;;3.41;97.96
34034;BME280;63481;52.588;22.472;2023-04-26T02:38:51;99355.75;;;3.39;97.73
34034;BME280;63481;52.588;22.472;2023-04-26T02:39:23;99356.27;;;3.38;97.91
34034;BME280;63481;52.588;22.472;2023-04-26T02:39:55;99359.43;;;3.35;97.90
34034;BME280;63481;52.588;22.472;2023-04-26T02:40:28;99352.80;;;3.36;97.60
34034;BME280;63481;52.588;22.472;2023-04-26T02:41:02;99359.31;;;3.33;97.78
34034;BME280;63481;52.588;22.472;2023-04-26T02:41:34;99356.30;;;3.29;97.87
34034;BME280;63481;52.588;22.472;2023-04-26T02:42:09;99357.02;;;3.27;97.96
34034;BME280;63481;52.588;22.472;2023-04-26T02:42:41;99357.11;;;3.26;97.91
34034;BME280;63481;52.588;22.472;2023-04-26T02:43:13;99360.44;;;3.29;97.85
34034;BME280;63481;52.588;22.472;2023-04-26T02:43:45;99358.54;;;3.29;97.70
34034;BME280;63481;52.588;22.472;2023-04-26T02:44:17;99359.15;;;3.30;98.03
34034;BME280;63481;52.588;22.472;2023-04-26T02:44:49;99355.67;;;3.33;98.02
34034;BME280;63481;52.588;22.472;2023-04-26T02:45:22;99357.14;;;3.30;97.94
34034;BME280;63481;52.588;22.472;2023-04-26T02:45:54;99357.48;;;3.29;97.66
34034;BME280;63481;52.588;22.472;2023-04-26T02:46:26;99356.29;;;3.28;97.69
34034;BME280;63481;52.588;22.472;2023-04-26T02:46:58;99354.70;;;3.24;97.47
34034;BME280;63481;52.588;22.472;2023-04-26T02:47:31;99354.88;;;3.20;97.67
34034;BME280;63481;52.588;22.472;2023-04-26T02:48:04;99356.75;;;3.21;97.94
34034;BME280;63481;52.588;22.472;2023-04-26T02:48:36;99355.64;;;3.20;97.93
34034;BME280;63481;52.588;22.472;2023-04-26T02:49:08;99357.29;;;3.20;97.92
34034;BME280;63481;52.588;22.472;2023-04-26T02:49:40;99358.30;;;3.21;98.15
34034;BME280;63481;52.588;22.472;2023-04-26T02:50:12;99359.29;;;3.26;98.31
34034;BME280;63481;52.588;22.472;2023-04-26T02:50:45;99356.06;;;3.26;98.15
34034;BME280;63481;52.588;22.472;2023-04-26T02:51:18;99359.33;;;3.25;98.09
34034;BME280;63481;52.588;22.472;2023-04-26T02:51:50;99362.48;;;3.27;98.10
34034;BME280;63481;52.588;22.472;2023-04-26T02:52:22;99361.07;;;3.25;97.97
34034;BME280;63481;52.588;22.472;2023-04-26T02:52:54;99360.15;;;3.23;97.83